Time;durP1;ratioP1;P1;durP2;ratioP2;P2;SDS_P1;SDS_P2;PMS_P1;PMS_P2;Temp;Humidity;BMP_temperature;BMP_pressure;BME280_temperature;BME280_humidity;BME280_pressure;Samples;Min_cycle;Max_cycle;Signal;HPM_P1;HPM_P2
2024/01/22 00:01:26;;;;;;;4.90;1.70;;;7.70;99.90;;;;;;4982553;28;20414;-73
2024/01/22 00:03:52;;;;;;;1.33;0.95;;;7.60;99.90;;;;;;4978820;28;20042;-74
2024/01/22 00:06:18;;;;;;;5.70;1.40;;;7.70;99.90;;;;;;4982831;28;20034;-71
2024/01/22 00:08:43;;;;;;;1.77;1.10;;;7.70;99.90;;;;;;4995390;28;20050;-75
2024/01/22 00:11:10;;;;;;;6.13;1.75;;;7.80;99.90;;;;;;4984696;28;20033;-75
2024/01/22 00:13:37;;;;;;;2.58;1.70;;;7.70;99.90;;;;;;4976554;28;20045;-75
2024/01/22 00:16:02;;;;;;;1.25;0.82;;;7.70;99.90;;;;;;4982768;28;20145;-75
2024/01/22 00:18:28;;;;;;;0.93;0.88;;;7.70;99.90;;;;;;4985094;28;20046;-75
2024/01/22 00:20:54;;;;;;;3.50;2.08;;;7.70;99.90;;;;;;4979495;28;20487;-75
2024/01/22 00:23:20;;;;;;;2.40;1.13;;;7.80;99.90;;;;;;4976997;28;20034;-74
2024/01/22 00:25:45;;;;;;;2.67;1.83;;;7.80;99.90;;;;;;4995561;28;20113;-73
2024/01/22 00:28:11;;;;;;;12.48;1.65;;;7.80;99.90;;;;;;4977336;28;20037;-75
2024/01/22 00:30:37;;;;;;;4.15;2.03;;;7.80;99.90;;;;;;4987212;28;20193;-74
2024/01/22 00:33:03;;;;;;;2.33;1.77;;;7.80;99.90;;;;;;4981181;28;20104;-75
2024/01/22 00:35:29;;;;;;;1.13;0.90;;;7.90;99.90;;;;;;4978909;28;20038;-75
2024/01/22 00:37:54;;;;;;;1.25;0.98;;;7.90;99.90;;;;;;4975366;28;20065;-75
2024/01/22 00:40:20;;;;;;;4.18;1.40;;;8.00;99.90;;;;;;4975331;28;20081;-74
2024/01/22 00:42:46;;;;;;;2.78;2.25;;;8.00;99.90;;;;;;4962953;28;20180;-72
2024/01/22 00:45:12;;;;;;;6.18;2.75;;;8.10;99.90;;;;;;4978980;28;20049;-73
2024/01/22 00:47:37;;;;;;;2.97;1.73;;;8.10;99.90;;;;;;4967838;28;20029;-73
2024/01/22 00:50:04;;;;;;;1.45;1.20;;;8.20;99.90;;;;;;4977296;28;20632;-76
2024/01/22 00:52:30;;;;;;;1.90;1.38;;;8.20;99.90;;;;;;4978678;28;20042;-73
2024/01/22 00:54:56;;;;;;;8.93;2.03;;;8.30;99.90;;;;;;4974706;28;20034;-73
2024/01/22 00:57:22;;;;;;;1.65;0.82;;;8.40;99.90;;;;;;4971004;28;20042;-74
2024/01/22 00:59:48;;;;;;;0.80;0.73;;;8.40;99.90;;;;;;4980065;28;20038;-74
2024/01/22 01:02:14;;;;;;;3.25;1.92;;;8.50;99.90;;;;;;4982772;28;20390;-76
2024/01/22 01:04:40;;;;;;;9.38;2.00;;;8.50;99.90;;;;;;4958618;28;20058;-74
2024/01/22 01:07:06;;;;;;;3.80;1.60;;;8.60;99.90;;;;;;4984679;28;20251;-75
2024/01/22 01:09:32;;;;;;;1.85;1.25;;;8.60;99.90;;;;;;4967051;28;20111;-74
2024/01/22 01:11:58;;;;;;;2.35;1.02;;;8.60;99.90;;;;;;4977792;28;20471;-74
2024/01/22 01:14:25;;;;;;;3.05;1.70;;;8.70;99.90;;;;;;4978751;28;20117;-75
2024/01/22 01:16:51;;;;;;;2.58;1.65;;;8.60;99.90;;;;;;4980554;28;20070;-73
2024/01/22 01:19:17;;;;;;;2.63;1.50;;;8.60;99.90;;;;;;4990456;28;20096;-74
2024/01/22 01:21:42;;;;;;;1.20;1.00;;;8.60;99.90;;;;;;4978816;28;20042;-73
2024/01/22 01:24:08;;;;;;;2.03;1.20;;;8.60;99.90;;;;;;4972349;28;20573;-73
2024/01/22 01:26:43;;;;;;;2.00;1.25;;;8.60;99.90;;;;;;4973736;28;20041;-72
2024/01/22 01:29:09;;;;;;;4.50;1.30;;;8.50;99.90;;;;;;4966579;28;20046;-74
2024/01/22 01:31:35;;;;;;;0.38;0.38;;;8.50;99.90;;;;;;4978638;28;20097;-72
2024/01/22 01:34:01;;;;;;;3.17;1.00;;;8.50;99.90;;;;;;4980210;28;20038;-73
2024/01/22 01:36:27;;;;;;;2.42;1.40;;;8.60;99.90;;;;;;4986403;28;20104;-73
2024/01/22 01:38:53;;;;;;;2.50;1.67;;;8.50;99.90;;;;;;4986384;28;20050;-72
2024/01/22 01:41:18;;;;;;;1.38;1.08;;;8.50;99.90;;;;;;4982293;28;20046;-70
2024/01/22 01:43:44;;;;;;;3.40;1.90;;;8.50;99.90;;;;;;4983386;28;20125;-75
2024/01/22 01:46:10;;;;;;;0.77;0.70;;;8.50;99.90;;;;;;4983532;28;20109;-71
2024/01/22 01:48:36;;;;;;;0.60;0.52;;;8.50;99.90;;;;;;4980678;28;20095;-72
2024/01/22 01:51:02;;;;;;;1.90;0.93;;;8.50;99.90;;;;;;4962081;28;20479;-71
2024/01/22 01:53:29;;;;;;;1.58;0.80;;;8.50;99.90;;;;;;4989624;28;20096;-72
2024/01/22 01:55:55;;;;;;;4.28;1.70;;;8.60;99.90;;;;;;4986188;28;20047;-73
2024/01/22 01:58:22;;;;;;;5.20;1.23;;;8.60;99.90;;;;;;4977900;28;20061;-74
2024/01/22 02:00:49;;;;;;;4.25;1.60;;;8.60;99.90;;;;;;4982256;28;20064;-73
2024/01/22 02:03:15;;;;;;;1.55;1.00;;;8.50;99.90;;;;;;4982175;28;20058;-75
2024/01/22 02:05:41;;;;;;;3.97;0.63;;;8.60;99.90;;;;;;4981700;28;20049;-74
2024/01/22 02:08:07;;;;;;;2.75;1.67;;;8.60;99.90;;;;;;4978177;28;20038;-73
2024/01/22 02:10:32;;;;;;;1.42;0.98;;;8.60;99.90;;;;;;4985122;28;20418;-73
2024/01/22 02:13:01;;;;;;;3.25;1.55;;;8.50;99.90;;;;;;4981423;28;20042;-73
2024/01/22 02:15:26;;;;;;;1.45;0.95;;;8.50;99.90;;;;;;4978442;28;20050;-73
2024/01/22 02:17:52;;;;;;;2.67;1.27;;;8.60;99.90;;;;;;4977265;28;20058;-71
2024/01/22 02:20:18;;;;;;;1.00;0.93;;;8.60;99.90;;;;;;4993326;28;20406;-73
2024/01/22 02:22:44;;;;;;;1.13;0.73;;;8.60;99.90;;;;;;4981305;28;20041;-74
2024/01/22 02:25:10;;;;;;;3.42;1.55;;;8.70;99.90;;;;;;4988115;28;20054;-74
2024/01/22 02:27:35;;;;;;;1.40;0.93;;;8.70;99.90;;;;;;4970887;28;20096;-73
2024/01/22 02:30:01;;;;;;;1.23;0.68;;;8.70;99.90;;;;;;4965488;28;20537;-73
2024/01/22 02:32:27;;;;;;;4.28;1.38;;;8.80;99.90;;;;;;4980899;28;20486;-72
2024/01/22 02:34:53;;;;;;;10.23;1.70;;;8.90;99.90;;;;;;4977010;28;20035;-73
2024/01/22 02:37:18;;;;;;;4.13;1.67;;;8.90;99.90;;;;;;4983558;28;20046;-74
2024/01/22 02:39:44;;;;;;;3.22;1.65;;;8.90;99.90;;;;;;4990055;28;20038;-73
2024/01/22 02:42:10;;;;;;;1.15;1.05;;;8.90;99.90;;;;;;4979596;28;20495;-74
2024/01/22 02:44:36;;;;;;;5.28;1.48;;;9.00;99.90;;;;;;4983645;28;20068;-73
2024/01/22 02:47:02;;;;;;;1.05;0.95;;;9.00;99.90;;;;;;4983560;28;20117;-73
2024/01/22 02:49:28;;;;;;;2.08;1.52;;;9.10;99.90;;;;;;4981113;28;20499;-72
2024/01/22 02:51:54;;;;;;;0.80;0.77;;;9.00;99.90;;;;;;4982930;28;20068;-72
2024/01/22 02:54:20;;;;;;;1.88;0.90;;;9.00;99.90;;;;;;4978491;28;20042;-73
2024/01/22 02:56:45;;;;;;;1.63;0.93;;;9.00;99.90;;;;;;4978796;28;20034;-74
2024/01/22 02:59:11;;;;;;;0.60;0.52;;;9.00;99.90;;;;;;4976653;28;20825;-72
2024/01/22 03:01:37;;;;;;;2.80;1.23;;;8.90;99.90;;;;;;5009284;28;20144;-73
2024/01/22 03:04:03;;;;;;;1.48;1.20;;;9.00;99.90;;;;;;4972599;28;20040;-71
2024/01/22 03:06:29;;;;;;;1.50;1.27;;;9.00;99.90;;;;;;4972071;28;20049;-71
2024/01/22 03:08:55;;;;;;;2.28;1.48;;;9.00;99.90;;;;;;4992262;28;20378;-72
2024/01/22 03:11:22;;;;;;;1.40;0.98;;;9.00;99.90;;;;;;4981732;28;20042;-73
2024/01/22 03:13:48;;;;;;;10.20;1.20;;;9.00;99.90;;;;;;4984771;28;20038;-72
2024/01/22 03:16:14;;;;;;;8.40;1.92;;;9.00;99.90;;;;;;4966885;28;20057;-72
2024/01/22 03:18:40;;;;;;;1.40;0.88;;;9.00;99.90;;;;;;4976206;28;20105;-73
2024/01/22 03:21:06;;;;;;;1.75;1.50;;;8.90;99.90;;;;;;4983402;28;20471;-73
2024/01/22 03:23:31;;;;;;;0.52;0.43;;;8.90;99.90;;;;;;4983132;28;20100;-73
2024/01/22 03:25:57;;;;;;;1.55;0.85;;;9.00;99.90;;;;;;4983393;28;20042;-73
2024/01/22 03:28:23;;;;;;;2.15;1.48;;;9.00;99.90;;;;;;4969987;28;20129;-72
2024/01/22 03:30:49;;;;;;;1.00;0.80;;;9.00;99.90;;;;;;4979381;28;20043;-71
2024/01/22 03:33:15;;;;;;;2.88;0.80;;;8.90;99.90;;;;;;4978813;28;20057;-71
2024/01/22 03:35:40;;;;;;;2.83;1.23;;;9.00;99.90;;;;;;4975540;28;20110;-72
2024/01/22 03:38:06;;;;;;;3.47;0.90;;;8.90;99.90;;;;;;4976183;28;20065;-71
2024/01/22 03:40:32;;;;;;;2.22;0.95;;;8.90;99.90;;;;;;4982659;28;20041;-70
2024/01/22 03:42:58;;;;;;;3.17;0.82;;;8.90;99.90;;;;;;4977782;28;20843;-72
2024/01/22 03:45:23;;;;;;;2.25;0.88;;;9.00;99.90;;;;;;4978809;28;20049;-72
2024/01/22 03:47:49;;;;;;;2.85;1.40;;;9.00;99.90;;;;;;4979465;28;20121;-72
2024/01/22 03:50:15;;;;;;;2.22;0.85;;;9.00;99.90;;;;;;4978364;28;20042;-72
2024/01/22 03:52:41;;;;;;;1.35;0.75;;;9.10;99.90;;;;;;4979664;28;20035;-71
2024/01/22 03:55:08;;;;;;;1.58;0.80;;;9.10;99.90;;;;;;4979930;28;20045;-72
2024/01/22 03:57:34;;;;;;;4.70;1.42;;;9.10;99.90;;;;;;4963350;28;20046;-72
2024/01/22 04:00:00;;;;;;;2.47;1.30;;;9.10;99.90;;;;;;5001047;28;20042;-71
2024/01/22 04:02:26;;;;;;;0.30;0.30;;;9.10;99.90;;;;;;4982207;28;20042;-72
2024/01/22 04:04:52;;;;;;;1.85;1.00;;;9.20;99.90;;;;;;4976090;28;20100;-71
2024/01/22 04:07:18;;;;;;;2.55;1.40;;;9.20;99.90;;;;;;4979408;28;20088;-70
2024/01/22 04:09:44;;;;;;;1.35;0.77;;;9.20;99.90;;;;;;4968365;28;20073;-72
2024/01/22 04:12:09;;;;;;;1.80;0.52;;;9.20;99.90;;;;;;4979485;28;20055;-72
2024/01/22 04:14:35;;;;;;;1.00;0.60;;;9.20;99.90;;;;;;4987932;28;20121;-71
2024/01/22 04:17:01;;;;;;;1.13;0.70;;;9.20;99.90;;;;;;4976363;28;20097;-71
2024/01/22 04:19:27;;;;;;;1.35;0.70;;;9.20;99.90;;;;;;4982020;28;20042;-72
2024/01/22 04:21:56;;;;;;;0.70;0.40;;;9.20;99.90;;;;;;4982989;28;20493;-72
2024/01/22 04:24:21;;;;;;;3.55;0.90;;;9.30;99.90;;;;;;4978363;28;20054;-71
2024/01/22 04:26:47;;;;;;;2.17;1.40;;;9.30;99.90;;;;;;4968095;28;20049;-71
2024/01/22 04:29:13;;;;;;;2.75;0.75;;;9.30;99.90;;;;;;4989208;28;20611;-71
2024/01/22 04:31:39;;;;;;;1.13;0.70;;;9.30;99.90;;;;;;4982917;28;20536;-73
2024/01/22 04:34:04;;;;;;;4.45;0.60;;;9.30;99.90;;;;;;4963388;28;20384;-71
2024/01/22 04:36:30;;;;;;;1.38;0.70;;;9.40;99.90;;;;;;4975026;28;20046;-71
2024/01/22 04:38:56;;;;;;;0.60;0.50;;;9.40;99.90;;;;;;4974922;28;20066;-72
2024/01/22 04:41:22;;;;;;;1.13;0.70;;;9.40;99.90;;;;;;4980316;28;20054;-71
2024/01/22 04:43:48;;;;;;;1.90;0.70;;;9.50;99.90;;;;;;4982118;28;20038;-73
2024/01/22 04:46:13;;;;;;;1.20;0.80;;;9.50;99.90;;;;;;4982301;28;20065;-71
2024/01/22 04:48:39;;;;;;;1.88;0.73;;;9.50;99.90;;;;;;4979466;28;20536;-72
2024/01/22 04:51:05;;;;;;;1.50;0.93;;;9.60;99.90;;;;;;4978923;28;20677;-72
2024/01/22 04:53:31;;;;;;;0.63;0.40;;;9.60;99.90;;;;;;4974631;28;20070;-72
2024/01/22 04:55:57;;;;;;;0.80;0.63;;;9.70;99.90;;;;;;4974770;28;20046;-72
2024/01/22 04:58:23;;;;;;;2.75;0.95;;;9.80;99.90;;;;;;4992615;28;20041;-72
2024/01/22 05:00:48;;;;;;;0.70;0.50;;;9.90;99.90;;;;;;4974545;28;20567;-73
2024/01/22 05:03:14;;;;;;;0.55;0.50;;;9.90;99.90;;;;;;4962709;28;20038;-70
2024/01/22 05:05:40;;;;;;;1.80;1.05;;;10.00;99.90;;;;;;4966467;28;20046;-72
2024/01/22 05:08:06;;;;;;;0.38;0.22;;;10.10;99.90;;;;;;4977476;28;20038;-72
2024/01/22 05:10:32;;;;;;;1.45;0.60;;;10.20;99.90;;;;;;4980542;28;20061;-72
2024/01/22 05:12:58;;;;;;;0.93;0.73;;;10.20;99.90;;;;;;4986732;28;20374;-71
2024/01/22 05:15:23;;;;;;;0.52;0.50;;;10.30;99.90;;;;;;4978815;28;20035;-72
2024/01/22 05:17:49;;;;;;;0.38;0.30;;;10.40;99.90;;;;;;4978224;28;20053;-72
2024/01/22 05:20:15;;;;;;;1.25;0.40;;;10.50;99.90;;;;;;4978476;28;20054;-71
2024/01/22 05:22:41;;;;;;;1.65;0.40;;;10.50;99.90;;;;;;4980395;28;20046;-73
2024/01/22 05:25:08;;;;;;;0.30;0.30;;;10.50;99.90;;;;;;4965545;28;20035;-73
2024/01/22 05:27:34;;;;;;;0.63;0.38;;;10.50;99.90;;;;;;4987205;28;20474;-73
2024/01/22 05:29:59;;;;;;;2.78;0.40;;;10.60;99.90;;;;;;4978239;28;20073;-73
2024/01/22 05:32:25;;;;;;;0.77;0.50;;;10.70;99.90;;;;;;4988416;28;20041;-72
2024/01/22 05:34:51;;;;;;;0.75;0.40;;;10.70;99.90;;;;;;4962776;28;20085;-73
2024/01/22 05:37:17;;;;;;;0.55;0.32;;;10.80;99.90;;;;;;4978381;28;20498;-74
2024/01/22 05:39:42;;;;;;;0.63;0.30;;;10.80;99.90;;;;;;4976753;28;20400;-73
2024/01/22 05:42:08;;;;;;;0.70;0.40;;;10.90;99.90;;;;;;4979000;28;20046;-73
2024/01/22 05:44:34;;;;;;;1.02;0.40;;;10.90;99.90;;;;;;4981767;28;20052;-74
2024/01/22 05:47:00;;;;;;;0.57;0.30;;;11.00;99.90;;;;;;4974182;28;20042;-72
2024/01/22 05:49:26;;;;;;;6.72;0.60;;;11.10;99.90;;;;;;4962239;28;20038;-73
2024/01/22 05:51:51;;;;;;;0.43;0.38;;;11.20;99.90;;;;;;4978434;28;20124;-71
2024/01/22 05:54:17;;;;;;;0.80;0.20;;;11.20;99.90;;;;;;4962439;28;20046;-72
2024/01/22 05:56:43;;;;;;;1.25;0.30;;;11.30;99.90;;;;;;4978462;28;20047;-73
2024/01/22 05:59:09;;;;;;;0.45;0.32;;;11.30;99.90;;;;;;4973979;28;20466;-70
2024/01/22 06:01:35;;;;;;;1.27;0.43;;;11.20;99.90;;;;;;4978618;28;20099;-73
2024/01/22 06:04:04;;;;;;;1.77;0.45;;;11.10;99.90;;;;;;4981651;28;20072;-72
2024/01/22 06:06:30;;;;;;;1.77;0.70;;;11.10;99.90;;;;;;4988247;28;20046;-73
2024/01/22 06:08:56;;;;;;;1.10;0.40;;;11.00;99.90;;;;;;4983693;28;20512;-71
2024/01/22 06:11:22;;;;;;;0.57;0.30;;;11.00;99.90;;;;;;4976735;28;20502;-73
2024/01/22 06:13:48;;;;;;;0.40;0.30;;;11.00;99.90;;;;;;4982709;28;20110;-72
2024/01/22 06:16:14;;;;;;;0.68;0.30;;;11.00;99.90;;;;;;4986610;28;20065;-71
2024/01/22 06:18:42;;;;;;;2.65;0.73;;;11.00;99.90;;;;;;4978115;28;20062;-72
2024/01/22 06:21:08;;;;;;;1.00;0.47;;;11.10;99.90;;;;;;4964046;28;20077;-73
2024/01/22 06:23:35;;;;;;;1.83;0.88;;;10.90;99.90;;;;;;4997052;28;20153;-72
2024/01/22 06:26:01;;;;;;;0.82;0.40;;;10.90;99.90;;;;;;4983728;28;20495;-71
2024/01/22 06:28:29;;;;;;;0.50;0.50;;;10.80;99.90;;;;;;4994248;28;20085;-70
2024/01/22 06:30:55;;;;;;;1.27;0.25;;;10.80;99.90;;;;;;4991968;28;20495;-72
2024/01/22 06:33:21;;;;;;;1.30;0.82;;;10.80;99.90;;;;;;4981093;28;20565;-71
2024/01/22 06:35:48;;;;;;;1.48;0.55;;;10.80;99.90;;;;;;4981866;28;20042;-70
2024/01/22 06:38:17;;;;;;;5.95;0.60;;;10.80;99.90;;;;;;4981012;28;20042;-72
2024/01/22 06:40:47;;;;;;;4.57;0.63;;;10.80;99.90;;;;;;4978546;28;20069;-72
2024/01/22 06:43:13;;;;;;;5.22;0.60;;;10.80;99.90;;;;;;4984559;28;20054;-72
2024/01/22 06:45:38;;;;;;;4.43;1.27;;;10.80;99.90;;;;;;4969025;28;20041;-71
2024/01/22 06:48:05;;;;;;;2.53;0.63;;;10.80;99.90;;;;;;4988786;28;20045;-71
2024/01/22 06:50:31;;;;;;;4.07;0.95;;;10.80;99.90;;;;;;4977814;28;20121;-70
2024/01/22 06:52:57;;;;;;;1.92;0.60;;;10.80;99.90;;;;;;4988206;28;20113;-71
2024/01/22 06:55:26;;;;;;;4.13;1.52;;;10.80;99.90;;;;;;4960734;28;20513;-73
2024/01/22 06:57:52;;;;;;;2.58;0.70;;;10.80;99.90;;;;;;4977286;28;20042;-71
2024/01/22 07:00:19;;;;;;;1.80;0.57;;;10.80;99.90;;;;;;4976568;28;20042;-72
2024/01/22 07:02:45;;;;;;;8.35;1.00;;;10.70;99.90;;;;;;4981769;28;20157;-71
2024/01/22 07:05:12;;;;;;;4.20;1.25;;;10.70;99.90;;;;;;4978336;28;20045;-72
2024/01/22 07:07:38;;;;;;;2.53;0.88;;;10.70;99.90;;;;;;4980330;28;20046;-72
2024/01/22 07:10:05;;;;;;;2.53;1.00;;;10.70;99.90;;;;;;4984607;28;20101;-72
2024/01/22 07:12:32;;;;;;;4.95;1.15;;;10.70;99.90;;;;;;4979333;28;20049;-72
2024/01/22 07:14:57;;;;;;;9.40;1.75;;;10.60;99.90;;;;;;4984696;28;20030;-71
2024/01/22 07:17:23;;;;;;;9.05;1.40;;;10.60;99.90;;;;;;4967942;28;20069;-71
2024/01/22 07:19:49;;;;;;;12.73;1.33;;;10.60;99.90;;;;;;4980249;28;20054;-73
2024/01/22 07:22:15;;;;;;;8.32;1.65;;;10.60;99.90;;;;;;4960325;28;20042;-70
2024/01/22 07:24:41;;;;;;;9.20;1.35;;;10.50;99.90;;;;;;4965980;28;20381;-73
2024/01/22 07:27:07;;;;;;;3.47;1.08;;;10.50;99.90;;;;;;4984353;28;20137;-73
2024/01/22 07:29:34;;;;;;;9.80;2.08;;;10.50;99.90;;;;;;4982678;28;20113;-72
2024/01/22 07:32:00;;;;;;;6.53;1.73;;;10.50;99.90;;;;;;4983242;28;20617;-73
2024/01/22 07:34:26;;;;;;;12.85;2.22;;;10.40;99.90;;;;;;4976762;28;20037;-73
2024/01/22 07:36:52;;;;;;;12.98;2.90;;;10.40;99.90;;;;;;4978753;28;20471;-71
2024/01/22 07:39:19;;;;;;;8.27;1.77;;;10.40;99.90;;;;;;4965462;28;20185;-72
2024/01/22 07:41:44;;;;;;;7.10;1.35;;;10.40;99.90;;;;;;4991723;28;20046;-71
2024/01/22 07:44:10;;;;;;;6.80;2.08;;;10.40;99.90;;;;;;4979470;28;20050;-71
2024/01/22 07:46:36;;;;;;;11.55;1.80;;;10.40;99.90;;;;;;4980545;28;20042;-71
2024/01/22 07:49:02;;;;;;;11.30;1.83;;;10.30;99.90;;;;;;4979580;28;20516;-73
2024/01/22 07:51:29;;;;;;;8.27;1.40;;;10.30;99.90;;;;;;4977436;28;20125;-73
2024/01/22 07:53:55;;;;;;;13.90;3.00;;;10.40;99.90;;;;;;4979101;28;20046;-71
2024/01/22 07:56:21;;;;;;;8.23;2.00;;;10.40;99.90;;;;;;4975790;28;20073;-72
2024/01/22 07:58:47;;;;;;;6.70;2.17;;;10.40;99.90;;;;;;4976077;28;20537;-72
2024/01/22 08:01:13;;;;;;;14.13;4.18;;;10.40;99.90;;;;;;4964512;28;20359;-72
2024/01/22 08:03:38;;;;;;;10.98;2.22;;;10.40;99.90;;;;;;4962103;28;20046;-72
2024/01/22 08:06:04;;;;;;;5.55;1.92;;;10.30;99.90;;;;;;4967345;28;20053;-71
2024/01/22 08:08:30;;;;;;;6.47;1.65;;;10.20;99.90;;;;;;4983624;28;20038;-72
2024/01/22 08:10:57;;;;;;;16.45;3.80;;;10.20;99.90;;;;;;4991821;28;20054;-73
2024/01/22 08:13:23;;;;;;;9.38;2.83;;;10.10;99.90;;;;;;5000200;28;20053;-73
2024/01/22 08:15:49;;;;;;;9.52;2.40;;;10.10;99.90;;;;;;4975230;28;20035;-73
2024/01/22 08:18:16;;;;;;;13.50;2.20;;;10.10;99.90;;;;;;4967211;28;20525;-73
2024/01/22 08:20:42;;;;;;;15.70;2.20;;;10.00;99.90;;;;;;4987692;28;20045;-71
2024/01/22 08:23:09;;;;;;;15.48;2.10;;;10.00;99.90;;;;;;5007323;28;20034;-70
2024/01/22 08:25:35;;;;;;;16.08;3.78;;;10.00;99.90;;;;;;4986551;28;20046;-72
2024/01/22 08:28:02;;;;;;;8.55;2.22;;;9.90;99.90;;;;;;4975390;28;20050;-71
2024/01/22 08:30:29;;;;;;;11.13;2.30;;;9.80;99.90;;;;;;4975897;28;20042;-72
2024/01/22 08:32:55;;;;;;;10.32;2.20;;;9.70;99.90;;;;;;4982749;28;20041;-70
2024/01/22 08:35:22;;;;;;;13.60;1.75;;;9.70;99.90;;;;;;4980835;28;20483;-72
2024/01/22 08:37:52;;;;;;;13.48;2.05;;;9.60;99.90;;;;;;4981768;28;20034;-73
2024/01/22 08:40:21;;;;;;;17.60;3.30;;;9.60;99.90;;;;;;4985432;28;20042;-73
2024/01/22 08:42:55;;;;;;;16.77;2.55;;;9.60;99.90;;;;;;4959909;28;20100;-74
2024/01/22 08:45:22;;;;;;;10.55;1.90;;;9.60;99.90;;;;;;4987113;28;20159;-74
2024/01/22 08:47:51;;;;;;;11.65;2.17;;;9.60;99.90;;;;;;4983311;28;20034;-74
2024/01/22 08:50:19;;;;;;;17.48;3.47;;;9.50;99.90;;;;;;4975006;28;20124;-74
2024/01/22 08:52:49;;;;;;;21.05;2.58;;;9.50;99.90;;;;;;4982850;28;20048;-72
2024/01/22 08:55:16;;;;;;;13.23;2.90;;;9.60;99.90;;;;;;4987501;28;20528;-73
2024/01/22 08:57:45;;;;;;;20.55;2.65;;;9.50;99.90;;;;;;4966915;28;20042;-74
2024/01/22 09:00:11;;;;;;;15.45;3.75;;;9.60;99.90;;;;;;4978048;28;20031;-72
2024/01/22 09:02:42;;;;;;;14.90;3.35;;;9.50;99.90;;;;;;4987228;28;20375;-74
2024/01/22 09:05:09;;;;;;;7.22;2.03;;;9.60;99.90;;;;;;4985634;28;20487;-72
2024/01/22 09:07:36;;;;;;;10.93;2.25;;;9.50;99.90;;;;;;4982872;28;20487;-73
2024/01/22 09:10:07;;;;;;;21.10;3.95;;;9.50;99.90;;;;;;4976936;28;20129;-72
2024/01/22 09:12:36;;;;;;;16.60;3.45;;;9.70;99.90;;;;;;4979200;28;20065;-75
2024/01/22 09:15:05;;;;;;;8.55;2.15;;;10.00;99.90;;;;;;4983416;28;20153;-74
2024/01/22 09:17:32;;;;;;;11.47;1.93;;;10.10;99.90;;;;;;4979301;28;20471;-75
2024/01/22 09:19:58;;;;;;;15.20;2.65;;;10.10;99.90;;;;;;4980653;28;20356;-74
2024/01/22 09:22:28;;;;;;;13.43;2.97;;;10.10;99.90;;;;;;4978592;28;20058;-73
2024/01/22 09:24:54;;;;;;;10.10;2.65;;;10.20;99.90;;;;;;4982543;28;20117;-75
2024/01/22 09:27:21;;;;;;;13.65;1.92;;;10.20;99.90;;;;;;4979491;28;20558;-74
2024/01/22 09:29:46;;;;;;;17.23;4.82;;;10.10;99.90;;;;;;4984987;28;20046;-75
2024/01/22 09:32:13;;;;;;;16.02;2.33;;;9.90;99.90;;;;;;4962251;28;20049;-75
2024/01/22 09:34:39;;;;;;;14.18;3.50;;;9.90;99.90;;;;;;4981562;28;20034;-74
2024/01/22 09:37:06;;;;;;;14.05;2.80;;;9.80;99.90;;;;;;4980350;28;20046;-74
2024/01/22 09:39:32;;;;;;;16.90;3.38;;;9.80;99.90;;;;;;4978105;28;20043;-75
2024/01/22 09:41:58;;;;;;;7.18;2.53;;;9.80;99.90;;;;;;4973992;28;20053;-73
2024/01/22 09:44:27;;;;;;;23.30;3.38;;;10.00;99.90;;;;;;4979524;28;20626;-74
2024/01/22 09:46:53;;;;;;;12.68;2.15;;;10.50;99.90;;;;;;4958083;28;20085;-73
2024/01/22 09:49:20;;;;;;;14.07;4.20;;;11.00;99.90;;;;;;4983860;28;20053;-73
2024/01/22 09:51:46;;;;;;;10.77;3.15;;;11.40;99.90;;;;;;4974074;28;20550;-74
2024/01/22 09:54:18;;;;;;;15.07;2.63;;;11.40;99.90;;;;;;4981687;28;20138;-74
2024/01/22 09:56:55;;;;;;;17.75;3.08;;;11.50;99.90;;;;;;4989843;28;20042;-73
2024/01/22 09:59:26;;;;;;;15.63;2.70;;;11.30;99.90;;;;;;4978147;28;20073;-74
2024/01/22 10:01:53;;;;;;;13.45;2.75;;;11.00;99.90;;;;;;4978927;28;20046;-74
2024/01/22 10:04:19;;;;;;;10.45;3.83;;;10.70;99.90;;;;;;4977486;28;20081;-73
2024/01/22 10:06:46;;;;;;;17.38;3.78;;;10.50;99.90;;;;;;4981665;28;20104;-73
2024/01/22 10:09:17;;;;;;;13.32;2.70;;;10.30;99.90;;;;;;4992362;28;20081;-71
2024/01/22 10:11:43;;;;;;;14.50;3.58;;;10.10;99.90;;;;;;4985719;28;20057;-72
2024/01/22 10:14:10;;;;;;;22.73;4.93;;;10.00;99.90;;;;;;4978924;28;20042;-73
2024/01/22 10:16:39;;;;;;;27.95;4.63;;;10.20;99.90;;;;;;4981211;28;20074;-73
2024/01/22 10:19:09;;;;;;;19.52;3.67;;;10.90;99.90;;;;;;4980450;28;20069;-73
2024/01/22 10:21:37;;;;;;;17.85;3.33;;;11.80;99.90;;;;;;4981820;28;20042;-73
2024/01/22 10:24:05;;;;;;;24.15;4.07;;;12.50;99.90;;;;;;4978561;28;20379;-72
2024/01/22 10:26:31;;;;;;;26.80;3.80;;;13.00;99.90;;;;;;4978618;28;20046;-74
2024/01/22 10:29:18;;;;;;;21.20;2.83;;;13.60;99.90;;;;;;4986389;28;20076;-73
2024/01/22 10:31:59;;;;;;;17.65;3.70;;;13.70;99.90;;;;;;4999876;28;20400;-72
2024/01/22 10:34:28;;;;;;;19.98;3.53;;;13.70;99.90;;;;;;4978787;28;20046;-72
2024/01/22 10:37:07;;;;;;;19.95;3.22;;;13.70;99.90;;;;;;4961844;28;20034;-73
2024/01/22 10:39:39;;;;;;;21.63;3.80;;;13.70;99.90;;;;;;4981252;28;20116;-73
2024/01/22 10:42:12;;;;;;;10.82;3.10;;;13.70;99.90;;;;;;4966827;28;20046;-72
2024/01/22 10:44:41;;;;;;;22.45;4.07;;;13.70;99.90;;;;;;4979655;28;20461;-72
2024/01/22 10:47:07;;;;;;;13.15;3.63;;;13.90;99.90;;;;;;4982292;28;20054;-73
2024/01/22 10:49:34;;;;;;;17.50;2.53;;;14.10;99.90;;;;;;4981285;28;20046;-72
2024/01/22 10:52:01;;;;;;;8.23;2.03;;;14.10;99.90;;;;;;4977091;28;20100;-72
2024/01/22 10:54:27;;;;;;;5.97;2.05;;;14.10;99.90;;;;;;4976469;28;20054;-71
2024/01/22 10:57:18;;;;;;;18.80;4.50;;;14.20;99.90;;;;;;4980411;28;20042;-72
2024/01/22 10:59:48;;;;;;;13.15;5.00;;;14.30;99.90;;;;;;4981648;28;20038;-72
2024/01/22 11:02:23;;;;;;;7.78;3.25;;;14.10;99.90;;;;;;5003728;28;20060;-72
2024/01/22 11:05:18;;;;;;;11.20;2.45;;;14.20;99.90;;;;;;4984267;28;20038;-72
2024/01/22 11:07:45;;;;;;;8.02;2.47;;;14.10;99.90;;;;;;4980349;28;20054;-72
2024/01/22 11:10:12;;;;;;;9.02;1.77;;;13.90;99.90;;;;;;4999249;28;20135;-73
2024/01/22 11:12:51;;;;;;;17.73;5.28;;;13.90;99.90;;;;;;4977514;28;20468;-72
2024/01/22 11:15:17;;;;;;;17.80;3.13;;;14.20;99.90;;;;;;4975190;28;20046;-72
2024/01/22 11:17:43;;;;;;;19.60;4.93;;;14.50;99.90;;;;;;4996654;28;20042;-72
2024/01/22 11:20:21;;;;;;;14.45;3.78;;;14.90;99.90;;;;;;4973956;28;20089;-72
2024/01/22 11:23:15;;;;;;;13.65;2.05;;;14.90;99.90;;;;;;4980853;28;20129;-74
2024/01/22 11:25:44;;;;;;;11.30;2.45;;;14.50;99.90;;;;;;5001822;28;20081;-73
2024/01/22 11:28:15;;;;;;;16.00;3.92;;;14.30;99.90;;;;;;4985339;28;20042;-72
2024/01/22 11:30:44;;;;;;;9.98;1.65;;;13.90;99.90;;;;;;4984730;28;20034;-72
2024/01/22 11:33:26;;;;;;;10.73;1.85;;;13.50;99.90;;;;;;4958643;28;20117;-73
2024/01/22 11:35:53;;;;;;;11.52;2.05;;;13.40;99.90;;;;;;4982428;28;20053;-72
2024/01/22 11:38:37;;;;;;;16.40;2.30;;;13.60;99.90;;;;;;4980533;28;20057;-71
2024/01/22 11:41:04;;;;;;;10.52;1.67;;;13.40;99.90;;;;;;4998466;28;20042;-71
2024/01/22 11:43:30;;;;;;;9.27;2.22;;;13.40;99.90;;;;;;4981182;28;20100;-71
2024/01/22 11:46:00;;;;;;;11.38;2.00;;;13.30;99.90;;;;;;4980346;28;20039;-71
2024/01/22 11:48:27;;;;;;;9.13;2.25;;;13.30;99.90;;;;;;4995484;28;20046;-70
2024/01/22 11:51:01;;;;;;;15.52;2.00;;;13.10;99.90;;;;;;4975644;28;20057;-71
2024/01/22 11:53:28;;;;;;;6.75;1.88;;;13.10;99.90;;;;;;4979447;28;20046;-70
2024/01/22 11:56:02;;;;;;;7.85;1.58;;;13.20;99.90;;;;;;4984074;28;20038;-72
2024/01/22 11:58:32;;;;;;;9.73;1.88;;;12.90;99.90;;;;;;4967970;28;20038;-72
2024/01/22 12:01:05;;;;;;;13.73;1.77;;;12.60;99.90;;;;;;4979953;28;20053;-72
2024/01/22 12:03:31;;;;;;;9.30;1.70;;;12.50;99.90;;;;;;4994316;28;20053;-71
2024/01/22 12:06:01;;;;;;;13.63;1.80;;;12.40;99.90;;;;;;4959738;28;20050;-71
2024/01/22 12:08:28;;;;;;;9.60;2.50;;;12.20;99.90;;;;;;4978244;28;20097;-71
2024/01/22 12:11:13;;;;;;;8.82;2.63;;;12.20;99.90;;;;;;4982700;28;20124;-71
2024/01/22 12:13:43;;;;;;;11.18;2.08;;;12.10;99.90;;;;;;4975870;28;20115;-71
2024/01/22 12:16:16;;;;;;;11.23;1.73;;;12.20;99.90;;;;;;4979563;28;20514;-71
2024/01/22 12:18:43;;;;;;;17.65;2.90;;;12.40;99.90;;;;;;4974328;28;20515;-71
2024/01/22 12:21:10;;;;;;;4.97;1.20;;;12.50;99.90;;;;;;4978684;28;20042;-72
2024/01/22 12:23:36;;;;;;;12.07;2.20;;;12.60;99.90;;;;;;4976323;28;20407;-71
2024/01/22 12:26:03;;;;;;;9.02;1.98;;;12.70;99.90;;;;;;4977859;28;20153;-72
2024/01/22 12:28:29;;;;;;;10.18;2.40;;;12.60;99.90;;;;;;4981425;28;20042;-71
2024/01/22 12:30:59;;;;;;;7.93;1.75;;;12.40;99.90;;;;;;4975986;28;20049;-73
2024/01/22 12:33:26;;;;;;;12.35;2.88;;;12.30;99.90;;;;;;4975081;28;20053;-72
2024/01/22 12:36:12;;;;;;;9.02;2.95;;;12.20;99.90;;;;;;4975793;28;20088;-70
2024/01/22 12:38:48;;;;;;;6.88;1.80;;;12.10;99.90;;;;;;4994968;28;20771;-70
2024/01/22 12:41:14;;;;;;;9.38;2.67;;;11.90;99.90;;;;;;4975020;28;20415;-72
2024/01/22 12:43:40;;;;;;;6.97;1.20;;;11.80;99.90;;;;;;4977704;28;20081;-71
2024/01/22 12:46:13;;;;;;;5.75;1.80;;;11.70;99.90;;;;;;4981779;28;20092;-70
2024/01/22 12:48:39;;;;;;;11.25;1.80;;;11.50;99.90;;;;;;4962593;28;20076;-70